createdAt,value
2018-02-25T00:02:37.621Z,5.00
2018-02-25T00:07:31.947Z,6.47
2018-02-25T00:12:26.983Z,5.73
2018-02-25T00:17:21.635Z,4.03
2018-02-25T00:22:25.817Z,4.13
2018-02-25T00:27:20.333Z,4.57
2018-02-25T00:32:14.678Z,4.07
2018-02-25T00:37:09.954Z,3.93
2018-02-25T00:42:04.259Z,5.10
2018-02-25T00:46:58.716Z,5.50
2018-02-25T00:51:54.054Z,6.80
2018-02-25T00:56:49.663Z,4.13
2018-02-25T01:01:44.763Z,4.43
2018-02-25T01:06:39.564Z,4.07
2018-02-25T01:11:33.951Z,5.10
2018-02-25T01:16:29.816Z,5.87
2018-02-25T01:21:24.287Z,4.53
2018-02-25T01:26:18.597Z,7.10
2018-02-25T01:31:13.111Z,3.27
2018-02-25T01:36:07.438Z,7.40
2018-02-25T01:41:02.497Z,6.50
2018-02-25T01:45:56.970Z,8.07
2018-02-25T01:51:03.902Z,5.77
2018-02-25T01:55:58.308Z,6.10
2018-02-25T02:00:52.621Z,4.73
2018-02-25T02:05:46.889Z,6.00
2018-02-25T02:10:41.215Z,9.53
2018-02-25T02:15:35.675Z,4.53
2018-02-25T02:20:30.730Z,5.17
2018-02-25T02:25:25.033Z,6.67
2018-02-25T02:30:19.302Z,6.73
2018-02-25T02:35:13.610Z,5.83
2018-02-25T02:40:07.912Z,7.17
2018-02-25T02:45:02.228Z,5.13
2018-02-25T02:49:56.755Z,5.70
2018-02-25T02:54:51.060Z,8.30
2018-02-25T02:59:45.384Z,6.40
2018-02-25T03:04:39.651Z,4.77
2018-02-25T03:09:34.059Z,9.90
2018-02-25T03:14:28.349Z,7.43
2018-02-25T03:19:22.790Z,7.73
2018-02-25T03:24:17.071Z,12.93
2018-02-25T03:29:11.169Z,8.20
2018-02-25T03:34:04.829Z,7.63
2018-02-25T03:38:59.123Z,7.17
2018-02-25T03:43:53.431Z,7.27
2018-02-25T03:48:47.739Z,10.03
2018-02-25T03:53:42.034Z,7.27
2018-02-25T03:58:36.326Z,6.63
2018-02-25T04:03:30.635Z,8.57
2018-02-25T04:08:24.939Z,5.37
2018-02-25T04:13:19.288Z,7.87
2018-02-25T04:18:13.580Z,8.67
2018-02-25T04:23:07.851Z,9.40
2018-02-25T04:28:02.199Z,10.33
2018-02-25T04:32:56.653Z,8.23
2018-02-25T04:37:50.926Z,6.30
2018-02-25T04:42:45.217Z,10.70
2018-02-25T04:47:40.272Z,11.00
2018-02-25T04:52:34.586Z,9.57
2018-02-25T04:57:28.933Z,7.03
2018-02-25T05:02:24.005Z,8.53
2018-02-25T05:07:18.268Z,7.40
2018-02-25T05:12:12.550Z,8.90
2018-02-25T05:17:07.635Z,8.07
2018-02-25T05:22:01.973Z,9.10
2018-02-25T05:26:56.866Z,7.47
2018-02-25T05:31:50.964Z,5.60
2018-02-25T05:36:45.415Z,7.73
2018-02-25T05:41:39.780Z,10.47
2018-02-25T05:46:34.859Z,9.33
2018-02-25T05:51:29.345Z,10.93
2018-02-25T05:56:23.854Z,6.80
2018-02-25T06:01:18.144Z,9.60
2018-02-25T06:06:12.434Z,7.70
2018-02-25T06:11:06.767Z,8.87
2018-02-25T06:16:01.056Z,8.30
2018-02-25T06:20:55.205Z,12.37
2018-02-25T06:25:50.403Z,8.53
2018-02-25T06:30:44.688Z,6.57
2018-02-25T06:35:38.988Z,12.50
2018-02-25T06:40:33.304Z,11.40
2018-02-25T06:45:27.729Z,8.83
2018-02-25T06:50:22.769Z,8.07
2018-02-25T06:55:19.507Z,11.07
2018-02-25T07:00:14.562Z,9.07
2018-02-25T07:05:10.264Z,11.13
2018-02-25T07:10:05.333Z,8.93
2018-02-25T07:15:01.182Z,10.83
2018-02-25T07:19:55.467Z,9.70
2018-02-25T07:24:49.814Z,8.63
2018-02-25T07:29:44.885Z,6.37
2018-02-25T07:34:54.566Z,9.43
2018-02-25T07:40:04.582Z,8.70
2018-02-25T07:45:00.341Z,10.47
2018-02-25T07:50:11.964Z,6.47
2018-02-25T07:55:07.240Z,7.33
2018-02-25T08:00:02.295Z,8.43
2018-02-25T08:04:57.181Z,10.57
2018-02-25T08:09:52.209Z,6.53
2018-02-25T08:14:46.744Z,7.10
2018-02-25T08:19:41.019Z,7.53
2018-02-25T08:24:35.313Z,7.83
2018-02-25T08:29:30.728Z,7.90
2018-02-25T08:34:27.655Z,7.87
2018-02-25T08:39:21.991Z,7.53
2018-02-25T08:44:17.047Z,9.13
2018-02-25T08:49:11.374Z,6.40
2018-02-25T08:54:05.655Z,7.80
2018-02-25T08:59:00.028Z,8.70
2018-02-25T09:03:54.309Z,8.07
2018-02-25T09:08:49.359Z,8.00
2018-02-25T09:13:43.844Z,9.33
2018-02-25T09:18:38.125Z,8.50
2018-02-25T09:23:33.219Z,8.90
2018-02-25T09:28:27.546Z,7.47
2018-02-25T09:33:23.032Z,8.43
2018-02-25T09:38:17.587Z,7.80
2018-02-25T09:43:12.859Z,7.73
2018-02-25T09:48:07.783Z,6.33
2018-02-25T09:53:02.158Z,6.97
2018-02-25T09:58:08.888Z,9.23
2018-02-25T10:03:16.763Z,11.00
2018-02-25T10:08:25.942Z,6.73
2018-02-25T10:13:32.898Z,9.03
2018-02-25T10:18:39.938Z,6.97
2018-02-25T10:23:47.711Z,7.27
2018-02-25T10:28:51.045Z,7.53
2018-02-25T10:33:58.179Z,6.40
2018-02-25T10:39:06.212Z,6.87
2018-02-25T10:44:14.492Z,8.57
2018-02-25T10:49:21.232Z,6.93
2018-02-25T10:54:29.595Z,6.37
2018-02-25T10:59:36.952Z,5.73
2018-02-25T11:04:43.458Z,5.93
2018-02-25T11:09:43.558Z,5.07
2018-02-25T11:14:51.734Z,4.80
2018-02-25T11:19:56.438Z,6.37
2018-02-25T11:25:01.414Z,7.13
2018-02-25T11:30:09.952Z,9.00
2018-02-25T11:35:17.213Z,6.57
2018-02-25T11:40:23.073Z,4.90
2018-02-25T11:45:31.929Z,6.27
2018-02-25T11:50:39.566Z,8.17
2018-02-25T11:55:45.765Z,4.93
2018-02-25T12:00:55.162Z,6.27
2018-02-25T12:06:03.356Z,5.43
2018-02-25T12:11:08.359Z,6.07
2018-02-25T12:16:02.661Z,5.50
2018-02-25T12:20:57.317Z,5.63
2018-02-25T12:25:52.391Z,5.27
2018-02-25T12:30:46.796Z,5.90
2018-02-25T12:35:41.087Z,5.20
2018-02-25T12:40:35.423Z,7.20
2018-02-25T12:45:29.805Z,5.67
2018-02-25T12:50:24.107Z,4.27
2018-02-25T12:55:18.603Z,6.53
2018-02-25T13:00:13.057Z,4.70
2018-02-25T13:05:08.181Z,4.23
2018-02-25T13:10:03.328Z,6.67
2018-02-25T13:14:57.621Z,5.57
2018-02-25T13:19:52.749Z,5.37
2018-02-25T13:24:47.029Z,5.97
2018-02-25T13:29:42.144Z,4.00
2018-02-25T13:34:37.202Z,4.23
2018-02-25T13:39:31.882Z,6.13
2018-02-25T13:44:26.935Z,4.80
2018-02-25T13:49:21.448Z,3.23
2018-02-25T13:54:16.185Z,3.80
2018-02-25T13:59:10.525Z,3.03
2018-02-25T14:04:04.836Z,3.70
2018-02-25T14:08:59.100Z,3.93
2018-02-25T14:13:54.919Z,6.37
2018-02-25T14:18:49.305Z,3.43
2018-02-25T14:23:43.558Z,4.40
2018-02-25T14:28:38.776Z,3.13
2018-02-25T14:33:33.937Z,3.93
2018-02-25T14:38:28.386Z,3.27
2018-02-25T14:43:23.053Z,6.00
2018-02-25T14:48:17.543Z,4.10
2018-02-25T14:53:12.786Z,3.00
2018-02-25T14:58:07.180Z,3.50
2018-02-25T15:03:01.457Z,3.40
2018-02-25T15:07:57.544Z,3.93
2018-02-25T15:12:52.050Z,3.93
2018-02-25T15:17:46.672Z,2.70
2018-02-25T15:22:40.948Z,2.77
2018-02-25T15:27:35.392Z,3.60
2018-02-25T15:32:31.161Z,3.73
2018-02-25T15:37:25.414Z,2.80
2018-02-25T15:42:19.811Z,6.90
2018-02-25T15:47:14.436Z,3.57
2018-02-25T15:52:10.270Z,3.93
2018-02-25T15:57:05.032Z,3.60
2018-02-25T16:02:00.033Z,3.40
2018-02-25T16:06:54.334Z,3.60
2018-02-25T16:11:51.111Z,6.03
2018-02-25T16:16:45.383Z,5.37
2018-02-25T16:21:40.430Z,5.67
2018-02-25T16:26:34.514Z,6.43
2018-02-25T16:31:28.836Z,4.83
2018-02-25T16:36:23.124Z,7.20
2018-02-25T16:41:17.430Z,3.77
2018-02-25T16:46:11.859Z,9.60
2018-02-25T16:51:06.445Z,4.97
2018-02-25T16:56:01.007Z,5.43
2018-02-25T17:00:56.153Z,4.00
2018-02-25T17:05:50.750Z,6.17
2018-02-25T17:10:45.814Z,7.37
2018-02-25T17:15:40.162Z,6.93
2018-02-25T17:20:35.212Z,5.40
2018-02-25T17:25:29.555Z,5.60
2018-02-25T17:30:31.153Z,4.90
2018-02-25T17:35:26.218Z,6.30
2018-02-25T17:40:21.077Z,5.27
2018-02-25T17:45:16.134Z,5.87
2018-02-25T17:50:10.510Z,4.50
2018-02-25T17:55:05.767Z,2.93
2018-02-25T18:00:00.086Z,4.00
2018-02-25T18:04:54.682Z,4.87
2018-02-25T18:09:49.187Z,4.10
2018-02-25T18:14:44.490Z,4.67
2018-02-25T18:19:38.812Z,5.30
2018-02-25T18:24:33.818Z,5.73
2018-02-25T18:29:28.206Z,7.23
2018-02-25T18:34:22.641Z,7.40
2018-02-25T18:39:17.340Z,6.40
2018-02-25T18:44:11.832Z,5.13
2018-02-25T18:49:06.113Z,5.80
2018-02-25T18:54:01.195Z,6.17
2018-02-25T18:58:55.687Z,8.00
2018-02-25T19:03:50.074Z,6.10
2018-02-25T19:08:44.553Z,2.90
2018-02-25T19:13:38.893Z,4.73
2018-02-25T19:18:33.181Z,6.40
2018-02-25T19:23:28.503Z,6.07
2018-02-25T19:28:22.875Z,4.07
2018-02-25T19:33:18.061Z,7.90
2018-02-25T19:38:17.756Z,5.57
2018-02-25T19:43:12.367Z,7.03
2018-02-25T19:48:06.673Z,4.00
2018-02-25T19:53:00.966Z,3.83
2018-02-25T19:57:55.310Z,4.17
2018-02-25T20:02:49.589Z,2.77
2018-02-25T20:07:43.887Z,6.20
2018-02-25T20:12:38.015Z,6.90
2018-02-25T20:17:32.303Z,6.13
2018-02-25T20:22:26.631Z,5.33
2018-02-25T20:27:21.723Z,5.30
2018-02-25T20:32:16.089Z,5.67
2018-02-25T20:37:10.398Z,3.80
2018-02-25T20:42:04.772Z,4.23
2018-02-25T20:46:59.094Z,6.00
2018-02-25T20:51:54.122Z,5.80
2018-02-25T20:56:48.618Z,3.87
2018-02-25T21:01:42.926Z,4.17
2018-02-25T21:06:37.230Z,4.20
2018-02-25T21:11:31.672Z,6.57
2018-02-25T21:16:26.852Z,5.27
2018-02-25T21:21:21.559Z,6.17
2018-02-25T21:26:15.939Z,4.60
2018-02-25T21:31:10.084Z,3.13
2018-02-25T21:36:04.402Z,4.20
2018-02-25T21:40:58.751Z,4.80
2018-02-25T21:45:53.068Z,3.40
2018-02-25T21:50:47.781Z,4.93
2018-02-25T22:11:30.307Z,5.13
2018-02-25T22:16:24.642Z,5.07
2018-02-25T22:21:19.434Z,3.00
2018-02-25T22:26:13.734Z,5.87
2018-02-25T22:31:09.473Z,4.40
2018-02-25T22:36:04.699Z,5.73
2018-02-25T22:40:59.909Z,5.20
2018-02-25T22:45:55.548Z,5.10
2018-02-25T22:50:50.248Z,6.97
2018-02-25T22:55:44.592Z,4.03
2018-02-25T23:00:39.066Z,4.57
2018-02-25T23:05:33.372Z,4.20
2018-02-25T23:10:27.922Z,5.40
2018-02-25T23:15:22.351Z,5.33
2018-02-25T23:20:17.416Z,5.63
2018-02-25T23:25:11.704Z,7.77
2018-02-25T23:30:06.238Z,5.93
2018-02-25T23:35:00.531Z,5.07
2018-02-25T23:39:55.050Z,7.40
2018-02-25T23:44:49.327Z,6.77
2018-02-25T23:49:43.631Z,6.83
2018-02-25T23:54:38.799Z,6.53
2018-02-25T23:59:33.987Z,9.10
